^^
Saratoga-Weather Station Historical Data
Daily Summary for January 20, 2020 Units:  English    Metric   Both
Daily Weekly Monthly Yearly Custom
  High: Low: Average:
Temperature: 42.3 °F 33.1 °F 37.6 °F
Dew Point: 36 °F 29.7 °F 33.3 °F
Humidity: 93% 73% 84%
Wind Speed: 14mph 0mph 1.2mph
Wind Gust: 14mph - -
Wind- - East
Pressure: 30.9 in 30.8 in -
Precipitation: 0.01 in    
Historical Graphs
 
 
Tabular Data for January 20, 2020
Time Temperature Dew Point Pressure Wind Wind Speed Wind Gust Humidity Rainfall Rate (Hourly) solar
00:01 39 °F 35.8 °F 30.8 in Calm   4 mph 88% 0 in 0 W/m2
00:06 39 °F 35.8 °F 30.8 in Calm     88% 0 in 0 W/m2
00:11 39 °F 35.8 °F 30.8 in Calm     88% 0 in 0 W/m2
00:16 39.2 °F 36 °F 30.8 in Calm   3 mph 88% 0 in 0 W/m2
00:21 39.2 °F 36 °F 30.8 in Calm   4 mph 88% 0 in 0 W/m2
00:26 39.2 °F 36 °F 30.8 in Calm     88% 0 in 0 W/m2
00:31 39.2 °F 36 °F 30.8 in Calm   1 mph 88% 0 in 0 W/m2
00:36 39.2 °F 36 °F 30.8 in NNE 2.9 mph 3 mph 88% 0 in 0 W/m2
00:41 39 °F 35.8 °F 30.8 in North 6 mph 10 mph 88% 0 in 0 W/m2
00:46 39 °F 35.8 °F 30.8 in Calm   3 mph 88% 0 in 0 W/m2
00:51 39 °F 35.4 °F 30.8 in Calm     87% 0 in 0 W/m2
00:56 39 °F 35.8 °F 30.8 in Calm     88% 0 in 0 W/m2
01:01 38.8 °F 35.6 °F 30.8 in Calm   3 mph 88% 0 in 0 W/m2
01:06 38.8 °F 35.6 °F 30.8 in Calm   4 mph 88% 0 in 0 W/m2
01:11 38.8 °F 35.6 °F 30.8 in Calm     88% 0 in 0 W/m2
01:16 38.8 °F 35.6 °F 30.8 in Calm   4 mph 88% 0 in 0 W/m2
01:21 38.8 °F 35.6 °F 30.8 in NNW 5 mph 5 mph 88% 0 in 0 W/m2
01:26 38.8 °F 35.6 °F 30.8 in North 0.9 mph 1 mph 88% 0 in 0 W/m2
01:31 38.8 °F 35.6 °F 30.8 in Calm     88% 0 in 0 W/m2
01:36 39 °F 35.8 °F 30.8 in Calm   7 mph 88% 0 in 0 W/m2
01:41 39 °F 35.8 °F 30.8 in Calm   3 mph 88% 0 in 0 W/m2
01:46 38.8 °F 35.6 °F 30.8 in Calm     88% 0 in 0 W/m2
01:51 38.8 °F 35.6 °F 30.8 in NW 0.9 mph 8 mph 88% 0 in 0 W/m2
01:56 38.8 °F 35.6 °F 30.8 in NW 2.9 mph 4 mph 88% 0 in 0 W/m2
02:01 38.7 °F 35.4 °F 30.8 in NE 2.9 mph 3 mph 88% 0 in 0 W/m2
02:06 38.7 °F 35.4 °F 30.8 in Calm   2 mph 88% 0 in 0 W/m2
02:11 38.7 °F 35.4 °F 30.8 in Calm   1 mph 88% 0 in 0 W/m2
02:16 38.5 °F 35.2 °F 30.8 in Calm   1 mph 88% 0 in 0 W/m2
02:21 38.5 °F 35.2 °F 30.8 in NE 4 mph 5 mph 88% 0 in 0 W/m2
02:26 38.5 °F 35.2 °F 30.8 in Calm   1 mph 88% 0 in 0 W/m2
02:31 38.5 °F 35.2 °F 30.8 in Calm   2 mph 88% 0 in 0 W/m2
02:36 38.7 °F 35.4 °F 30.8 in Calm   1 mph 88% 0 in 0 W/m2
02:41 38.7 °F 35.4 °F 30.9 in Calm   5 mph 88% 0 in 0 W/m2
02:47 38.7 °F 35.4 °F 30.9 in Calm     88% 0 in 0 W/m2
02:52 38.7 °F 35.4 °F 30.9 in NNW 2 mph 2 mph 88% 0 in 0 W/m2
02:57 38.7 °F 35.4 °F 30.9 in NNW 0.9 mph 5 mph 88% 0 in 0 W/m2
03:02 38.7 °F 35.4 °F 30.9 in North 2 mph 3 mph 88% 0 in 0 W/m2
03:07 38.5 °F 35.2 °F 30.9 in NNE 2 mph 7 mph 88% 0 in 0 W/m2
03:12 38.5 °F 35.2 °F 30.9 in Calm   1 mph 88% 0 in 0 W/m2
03:17 38.5 °F 34.9 °F 30.9 in NE 2 mph 7 mph 87% 0 in 0 W/m2
03:22 38.5 °F 35.2 °F 30.9 in NNE 0.9 mph 2 mph 88% 0 in 0 W/m2
03:27 38.5 °F 34.9 °F 30.9 in Calm   4 mph 87% 0 in 0 W/m2
03:32 38.5 °F 35.2 °F 30.9 in NNE 2 mph 4 mph 88% 0 in 0 W/m2
03:37 38.5 °F 35.2 °F 30.9 in Calm   2 mph 88% 0 in 0 W/m2
03:42 38.5 °F 35.2 °F 30.8 in Calm   2 mph 88% 0 in 0 W/m2
03:47 38.5 °F 35.2 °F 30.8 in Calm   7 mph 88% 0 in 0 W/m2
03:52 38.5 °F 35.2 °F 30.8 in Calm   5 mph 88% 0 in 0 W/m2
03:57 38.5 °F 35.2 °F 30.8 in Calm   5 mph 88% 0 in 0 W/m2
04:02 38.5 °F 35.2 °F 30.8 in Calm   4 mph 88% 0 in 0 W/m2
04:08 38.5 °F 35.2 °F 30.8 in Calm   1 mph 88% 0 in 0 W/m2
04:13 38.5 °F 35.2 °F 30.8 in Calm   1 mph 88% 0 in 0 W/m2
04:18 38.5 °F 35.2 °F 30.8 in Calm   1 mph 88% 0 in 0 W/m2
04:23 38.5 °F 34.9 °F 30.8 in North 0.9 mph 2 mph 87% 0 in 0 W/m2
04:28 38.5 °F 34.9 °F 30.8 in North 0.9 mph 3 mph 87% 0 in 0 W/m2
04:33 38.5 °F 34.9 °F 30.8 in Calm   5 mph 87% 0 in 0 W/m2
04:38 38.5 °F 35.2 °F 30.8 in Calm   4 mph 88% 0 in 0 W/m2
04:43 38.1 °F 34.5 °F 30.8 in NNE 0.9 mph 4 mph 87% 0 in 0 W/m2
04:48 37.9 °F 34.7 °F 30.8 in Calm   8 mph 88% 0 in 0 W/m2
04:53 37.9 °F 34.7 °F 30.8 in NNE 0.9 mph 8 mph 88% 0 in 0 W/m2
04:58 37.8 °F 34.5 °F 30.8 in NNW 2 mph 3 mph 88% 0 in 0 W/m2
05:03 37.8 °F 34.5 °F 30.9 in Calm   6 mph 88% 0 in 0 W/m2
05:08 37.6 °F 34.3 °F 30.8 in Calm   3 mph 88% 0 in 0 W/m2
05:13 37.4 °F 34.2 °F 30.9 in Calm     88% 0 in 0 W/m2
05:18 37.2 °F 34 °F 30.8 in NW 0.9 mph 4 mph 88% 0 in 0 W/m2
05:23 37 °F 33.8 °F 30.8 in North 0.9 mph 6 mph 88% 0 in 0 W/m2
05:28 36.9 °F 33.6 °F 30.8 in Calm   1 mph 88% 0.01 in 0 W/m2
05:33 36.9 °F 34 °F 30.8 in Calm   2 mph 89% 0.01 in 0 W/m2
05:38 36.7 °F 33.8 °F 30.8 in Calm     89% 0.01 in 0 W/m2
05:43 36.7 °F 33.8 °F 30.8 in Calm   2 mph 89% 0.01 in 0 W/m2
05:48 36.5 °F 33.6 °F 30.8 in Calm   1 mph 89% 0.01 in 0 W/m2
05:53 36.3 °F 33.6 °F 30.9 in Calm     90% 0.01 in 0 W/m2
05:58 36.3 °F 33.6 °F 30.8 in Calm   1 mph 90% 0.01 in 0 W/m2
06:03 36.1 °F 33.4 °F 30.8 in Calm   1 mph 90% 0.01 in 0 W/m2
06:08 36.3 °F 33.6 °F 30.8 in Calm   1 mph 90% 0.01 in 0 W/m2
06:13 36.3 °F 34 °F 30.8 in Calm     91% 0.01 in 0 W/m2
06:18 36.3 °F 34 °F 30.8 in Calm   1 mph 91% 0.01 in 0 W/m2
06:24 36.1 °F 33.8 °F 30.9 in Calm   2 mph 91% 0.01 in 0 W/m2
06:29 36.1 °F 33.8 °F 30.9 in Calm   4 mph 91% 0 in 0 W/m2
06:34 36.1 °F 33.8 °F 30.9 in Calm   1 mph 91% 0 in 0 W/m2
06:39 36.1 °F 33.8 °F 30.9 in Calm   3 mph 91% 0 in 0 W/m2
06:44 36.1 °F 33.8 °F 30.9 in Calm   2 mph 91% 0 in 0 W/m2
06:49 36 °F 33.6 °F 30.9 in Calm   4 mph 91% 0 in 0 W/m2
06:54 36 °F 33.6 °F 30.9 in Calm   1 mph 91% 0 in 0 W/m2
06:59 36 °F 33.6 °F 30.9 in Calm     91% 0 in 0 W/m2
07:04 36 °F 33.6 °F 30.9 in Calm   2 mph 91% 0 in 0 W/m2
07:09 36 °F 33.6 °F 30.9 in Calm     91% 0 in 0 W/m2
07:14 36 °F 33.6 °F 30.9 in Calm   2 mph 91% 0 in 0 W/m2
07:19 35.8 °F 33.4 °F 30.9 in Calm     91% 0 in 0 W/m2
07:24 35.8 °F 33.4 °F 30.9 in Calm     91% 0 in 0 W/m2
07:29 35.4 °F 33.1 °F 30.9 in Calm     91% 0 in 0 W/m2
07:34 35.4 °F 33.1 °F 30.9 in Calm     91% 0 in 0 W/m2
07:39 35.2 °F 32.9 °F 30.9 in Calm   1 mph 91% 0 in 0 W/m2
07:44 35.2 °F 32.9 °F 30.9 in Calm     91% 0 in 0 W/m2
07:49 35.1 °F 32.7 °F 30.9 in Calm     91% 0 in 0 W/m2
07:54 35.1 °F 32.7 °F 30.9 in Calm     91% 0 in 0 W/m2
07:59 34.9 °F 32.7 °F 30.9 in Calm     92% 0 in 0 W/m2
08:04 35.1 °F 32.9 °F 30.9 in Calm     92% 0 in 0 W/m2
08:09 35.1 °F 32.9 °F 30.9 in Calm   1 mph 92% 0 in 0 W/m2
08:14 34.9 °F 32.7 °F 30.9 in Calm   1 mph 92% 0 in 0 W/m2
08:19 34.9 °F 32.7 °F 30.9 in Calm     92% 0 in 0 W/m2
08:24 34.9 °F 32.7 °F 30.9 in Calm   1 mph 92% 0 in 5 W/m2
08:29 34.7 °F 32.5 °F 30.9 in Calm     92% 0 in 7 W/m2
08:34 34.7 °F 32.5 °F 30.9 in Calm     92% 0 in 9 W/m2
08:39 34.7 °F 32.5 °F 30.9 in Calm   1 mph 92% 0 in 11 W/m2
08:44 34.7 °F 32.5 °F 30.9 in Calm     92% 0 in 14 W/m2
08:49 34.7 °F 32.5 °F 30.9 in Calm     92% 0 in 16 W/m2
08:54 34.5 °F 32.4 °F 30.9 in Calm     92% 0 in 18 W/m2
08:59 34.7 °F 32.5 °F 30.9 in Calm     92% 0 in 19 W/m2
09:04 34.5 °F 32.4 °F 30.9 in Calm     92% 0 in 19 W/m2
09:09 34.5 °F 32.4 °F 30.9 in Calm     92% 0 in 21 W/m2
09:14 34.5 °F 32.4 °F 30.9 in Calm     92% 0 in 23 W/m2
09:19 34.5 °F 32.7 °F 30.9 in Calm     93% 0 in 23 W/m2
09:24 34.7 °F 32.9 °F 30.9 in Calm     93% 0 in 25 W/m2
09:29 34.7 °F 32.9 °F 30.9 in Calm     93% 0 in 26 W/m2
09:34 34.9 °F 33.1 °F 30.9 in Calm     93% 0 in 26 W/m2
09:39 34.9 °F 33.1 °F 30.9 in Calm     93% 0 in 32 W/m2
09:44 35.1 °F 33.3 °F 30.9 in Calm     93% 0 in 28 W/m2
09:49 35.1 °F 32.9 °F 30.9 in Calm     92% 0 in 35 W/m2
09:54 35.2 °F 33.1 °F 30.9 in Calm   1 mph 92% 0 in 30 W/m2
09:59 35.2 °F 33.1 °F 30.9 in Calm   1 mph 92% 0 in 32 W/m2
10:04 35.6 °F 33.4 °F 30.9 in Calm   2 mph 92% 0 in 33 W/m2
10:09 35.8 °F 33.4 °F 30.9 in Calm     91% 0 in 42 W/m2
10:14 36 °F 33.6 °F 30.9 in Calm     91% 0 in 33 W/m2
10:19 36.1 °F 33.4 °F 30.9 in Calm     90% 0 in 39 W/m2
10:24 36.3 °F 33.6 °F 30.9 in Calm   1 mph 90% 0 in 35 W/m2
10:29 36.7 °F 33.8 °F 30.9 in Calm     89% 0 in 39 W/m2
10:34 36.9 °F 34 °F 30.9 in Calm   1 mph 89% 0 in 40 W/m2
10:39 37 °F 33.8 °F 30.9 in Calm   1 mph 88% 0 in 39 W/m2
10:44 37.2 °F 33.8 °F 30.9 in Calm     87% 0 in 40 W/m2
10:49 37.6 °F 34 °F 30.9 in Calm     87% 0 in 46 W/m2
10:54 38.1 °F 34 °F 30.9 in Calm   8 mph 85% 0 in 42 W/m2
10:59 38.7 °F 34 °F 30.9 in Calm   9 mph 83% 0 in 39 W/m2
11:04 39.2 °F 33.6 °F 30.9 in NE 6.9 mph 11 mph 80% 0 in 37 W/m2
11:09 39.6 °F 32.9 °F 30.9 in NNE 4.9 mph 12 mph 77% 0 in 37 W/m2
11:14 39.7 °F 33.1 °F 30.9 in North 2 mph 4 mph 77% 0 in 44 W/m2
11:19 39.9 °F 32.9 °F 30.9 in ENE 14 mph 14 mph 76% 0 in 46 W/m2
11:24 39.9 °F 32.9 °F 30.9 in ENE 8.9 mph 9 mph 76% 0 in 42 W/m2
11:29 39.9 °F 33.3 °F 30.9 in NNE 4.9 mph 6 mph 77% 0 in 39 W/m2
11:34 39.9 °F 33.3 °F 30.9 in ENE 4 mph 5 mph 77% 0 in 42 W/m2
11:39 39.9 °F 33.3 °F 30.9 in ENE 2.9 mph 6 mph 77% 0 in 47 W/m2
11:44 40.1 °F 33.4 °F 30.9 in NNE 8.1 mph 12 mph 77% 0 in 56 W/m2
11:49 40.1 °F 33.4 °F 30.9 in ENE 8.1 mph 11 mph 77% 0 in 39 W/m2
11:54 40.1 °F 33.4 °F 30.9 in ESE 4 mph 9 mph 77% 0 in 49 W/m2
11:59 40.1 °F 33.4 °F 30.9 in NE 10.1 mph 13 mph 77% 0 in 46 W/m2
12:04 40.3 °F 33.6 °F 30.9 in East 0.9 mph 9 mph 77% 0 in 42 W/m2
12:09 40.3 °F 33.6 °F 30.9 in NE 0.9 mph 7 mph 77% 0 in 40 W/m2
12:14 40.3 °F 33.6 °F 30.9 in ENE 4.9 mph 6 mph 77% 0 in 40 W/m2
12:19 40.5 °F 33.8 °F 30.9 in North 4 mph 10 mph 77% 0 in 60 W/m2
12:24 40.5 °F 33.8 °F 30.9 in Calm   5 mph 77% 0 in 54 W/m2
12:29 40.6 °F 34 °F 30.9 in Calm   8 mph 77% 0 in 53 W/m2
12:35 40.6 °F 34 °F 30.9 in NNE 6 mph 8 mph 77% 0 in 40 W/m2
12:40 40.6 °F 34 °F 30.9 in NNE 4.9 mph 5 mph 77% 0 in 42 W/m2
12:45 40.6 °F 33.6 °F 30.9 in NNE 2.9 mph 8 mph 76% 0 in 47 W/m2
12:50 40.8 °F 33.8 °F 30.9 in Calm   8 mph 76% 0 in 42 W/m2
12:55 40.8 °F 33.8 °F 30.9 in NNE 4 mph 7 mph 76% 0 in 51 W/m2
13:00 40.8 °F 33.8 °F 30.9 in NNE 6 mph 10 mph 76% 0 in 39 W/m2
13:05 40.8 °F 33.4 °F 30.9 in NE 4.9 mph 6 mph 75% 0 in 47 W/m2
13:10 40.8 °F 33.4 °F 30.9 in Calm   10 mph 75% 0 in 39 W/m2
13:15 41 °F 34 °F 30.9 in North 2.9 mph 8 mph 76% 0 in 39 W/m2
13:20 41.2 °F 33.8 °F 30.9 in East 0.9 mph 11 mph 75% 0 in 42 W/m2
13:25 41.4 °F 34 °F 30.9 in ENE 4.9 mph 6 mph 75% 0 in 42 W/m2
13:30 41.5 °F 34.2 °F 30.9 in Calm   3 mph 75% 0 in 39 W/m2
13:35 41.5 °F 34.2 °F 30.9 in North 2.9 mph 8 mph 75% 0 in 33 W/m2
13:40 41.5 °F 34.2 °F 30.9 in ENE 6 mph 7 mph 75% 0 in 37 W/m2
13:45 41.5 °F 34.2 °F 30.9 in NNE 2 mph 5 mph 75% 0 in 44 W/m2
13:50 41.5 °F 33.8 °F 30.9 in NNE 2.9 mph 6 mph 74% 0 in 39 W/m2
13:55 41.7 °F 34 °F 30.9 in ENE 2 mph 7 mph 74% 0 in 53 W/m2
14:00 41.7 °F 34 °F 30.9 in NE 0.9 mph 5 mph 74% 0 in 39 W/m2
14:05 41.9 °F 34.2 °F 30.9 in ENE 2.9 mph 5 mph 74% 0 in 40 W/m2
14:10 41.7 °F 34 °F 30.8 in NE 4 mph 5 mph 74% 0 in 37 W/m2
14:15 41.9 °F 33.8 °F 30.8 in NE 4.9 mph 9 mph 73% 0 in 47 W/m2
14:20 41.9 °F 33.8 °F 30.8 in NNE 4.9 mph 6 mph 73% 0 in 46 W/m2
14:25 42.1 °F 34.3 °F 30.8 in NNE 2.9 mph 5 mph 74% 0 in 42 W/m2
14:30 42.1 °F 34.7 °F 30.8 in North 0.9 mph 4 mph 75% 0 in 54 W/m2
14:35 42.1 °F 34.7 °F 30.8 in ESE 0.9 mph 5 mph 75% 0 in 44 W/m2
14:41 42.1 °F 34.3 °F 30.8 in Calm   5 mph 74% 0 in 39 W/m2
14:46 42.1 °F 34.3 °F 30.8 in NE 6 mph 8 mph 74% 0 in 35 W/m2
14:51 42.1 °F 34.3 °F 30.8 in Calm   10 mph 74% 0 in 37 W/m2
14:56 42.1 °F 34.3 °F 30.8 in NE 0.9 mph 3 mph 74% 0 in 40 W/m2
15:01 42.1 °F 34.3 °F 30.8 in NE 6.9 mph 9 mph 74% 0 in 53 W/m2
15:06 42.3 °F 34.5 °F 30.8 in NNW 6 mph 9 mph 74% 0 in 49 W/m2
15:11 42.3 °F 34.9 °F 30.8 in North 2.9 mph 8 mph 75% 0 in 33 W/m2
15:16 42.1 °F 34.3 °F 30.8 in NNE 6 mph 7 mph 74% 0 in 32 W/m2
15:21 41.7 °F 34 °F 30.8 in North 10.1 mph 10 mph 74% 0 in 30 W/m2
15:26 41.7 °F 34 °F 30.8 in North 6 mph 10 mph 74% 0 in 30 W/m2
15:31 41.7 °F 34.3 °F 30.8 in Calm   1 mph 75% 0 in 30 W/m2
15:36 41.5 °F 34.2 °F 30.8 in NNW 4.9 mph 9 mph 75% 0 in 30 W/m2
15:41 41.5 °F 34.2 °F 30.8 in North 6.9 mph 9 mph 75% 0 in 28 W/m2
15:46 41.5 °F 34.2 °F 30.8 in NW 4 mph 8 mph 75% 0 in 28 W/m2
15:51 41.5 °F 34.2 °F 30.8 in NNE 2.9 mph 6 mph 75% 0 in 26 W/m2
15:56 41.5 °F 34.2 °F 30.8 in North 8.1 mph 9 mph 75% 0 in 26 W/m2
16:01 41.5 °F 34.2 °F 30.8 in Calm   2 mph 75% 0 in 26 W/m2
16:06 41.4 °F 34 °F 30.8 in NNE 4.9 mph 7 mph 75% 0 in 25 W/m2
16:11 41.4 °F 34 °F 30.8 in NNE 2.9 mph 6 mph 75% 0 in 23 W/m2
16:16 41.2 °F 33.8 °F 30.8 in NE 6 mph 8 mph 75% 0 in 21 W/m2
16:21 41.2 °F 33.8 °F 30.8 in NE 2.9 mph 8 mph 75% 0 in 21 W/m2
16:26 41 °F 33.6 °F 30.8 in North 10.1 mph 11 mph 75% 0 in 19 W/m2
16:31 40.8 °F 33.4 °F 30.8 in Calm   4 mph 75% 0 in 18 W/m2
16:36 40.8 °F 33.4 °F 30.8 in Calm   5 mph 75% 0 in 16 W/m2
16:41 40.6 °F 33.3 °F 30.8 in NNE 0.9 mph 4 mph 75% 0 in 16 W/m2
16:46 40.6 °F 33.3 °F 30.8 in Calm   3 mph 75% 0 in 14 W/m2
16:51 40.3 °F 33.3 °F 30.8 in Calm   5 mph 76% 0 in 12 W/m2
16:56 40.3 °F 33.3 °F 30.8 in NNE 8.9 mph 9 mph 76% 0 in 11 W/m2
17:01 39.9 °F 32.9 °F 30.8 in NE 0.9 mph 5 mph 76% 0 in 9 W/m2
17:06 39.7 °F 32.7 °F 30.8 in NNW 4 mph 9 mph 76% 0 in 5 W/m2
17:11 39.7 °F 32.7 °F 30.8 in Calm   1 mph 76% 0 in 5 W/m2
17:16 39.6 °F 32.9 °F 30.8 in Calm   6 mph 77% 0 in 0 W/m2
17:21 39.4 °F 32.7 °F 30.8 in Calm   5 mph 77% 0 in 0 W/m2
17:26 39 °F 32.4 °F 30.8 in Calm   1 mph 77% 0 in 0 W/m2
17:31 39 °F 32.7 °F 30.8 in Calm   2 mph 78% 0 in 0 W/m2
17:36 38.8 °F 32.9 °F 30.8 in Calm   7 mph 79% 0 in 0 W/m2
17:41 38.7 °F 32.7 °F 30.8 in North 6.9 mph 9 mph 79% 0 in 0 W/m2
17:46 38.5 °F 32.9 °F 30.8 in Calm   6 mph 80% 0 in 0 W/m2
17:51 38.3 °F 32.7 °F 30.8 in NNE 0.9 mph 8 mph 80% 0 in 0 W/m2
17:56 37.9 °F 32.4 °F 30.8 in NNE 2 mph 7 mph 80% 0 in 0 W/m2
18:01 37.8 °F 32.5 °F 30.8 in Calm   5 mph 81% 0 in 0 W/m2
18:06 37.6 °F 32.4 °F 30.8 in NE 2 mph 7 mph 81% 0 in 0 W/m2
18:11 37.4 °F 32.2 °F 30.8 in Calm   2 mph 81% 0 in 0 W/m2
18:16 37.2 °F 32 °F 30.8 in Calm   8 mph 81% 0 in 0 W/m2
18:21 37 °F 32 °F 30.8 in Calm   1 mph 82% 0 in 0 W/m2
18:26 36.9 °F 31.8 °F 30.8 in Calm   5 mph 82% 0 in 0 W/m2
18:31 36.9 °F 31.8 °F 30.8 in Calm   1 mph 82% 0 in 0 W/m2
18:36 36.7 °F 31.6 °F 30.8 in Calm   5 mph 82% 0 in 0 W/m2
18:41 36.3 °F 31.6 °F 30.8 in NNW 2 mph 2 mph 83% 0 in 0 W/m2
18:46 36.3 °F 31.6 °F 30.8 in Calm   4 mph 83% 0 in 0 W/m2
18:51 36.1 °F 31.5 °F 30.8 in Calm     83% 0 in 0 W/m2
18:56 36.1 °F 31.5 °F 30.8 in NNE 2 mph 2 mph 83% 0 in 0 W/m2
19:01 36 °F 31.3 °F 30.8 in NNE 0.9 mph 1 mph 83% 0 in 0 W/m2
19:06 36 °F 31.6 °F 30.8 in Calm     84% 0 in 0 W/m2
19:11 35.8 °F 31.5 °F 30.8 in Calm   2 mph 84% 0 in 0 W/m2
19:16 35.8 °F 31.5 °F 30.8 in Calm   1 mph 84% 0 in 0 W/m2
19:21 35.8 °F 31.5 °F 30.8 in Calm   3 mph 84% 0 in 0 W/m2
19:26 35.6 °F 31.3 °F 30.8 in Calm   1 mph 84% 0 in 0 W/m2
19:31 35.4 °F 31.1 °F 30.8 in Calm   3 mph 84% 0 in 0 W/m2
19:36 35.4 °F 31.1 °F 30.8 in North 0.9 mph 3 mph 84% 0 in 0 W/m2
19:41 35.4 °F 31.1 °F 30.8 in Calm   2 mph 84% 0 in 0 W/m2
19:47 35.2 °F 30.9 °F 30.8 in Calm   1 mph 84% 0 in 0 W/m2
19:52 35.2 °F 30.9 °F 30.8 in Calm   1 mph 84% 0 in 0 W/m2
19:57 35.2 °F 30.9 °F 30.8 in Calm   2 mph 84% 0 in 0 W/m2
20:02 35.1 °F 30.9 °F 30.8 in Calm   3 mph 85% 0 in 0 W/m2
20:07 35.1 °F 30.9 °F 30.8 in Calm     85% 0 in 0 W/m2
20:12 35.1 °F 30.9 °F 30.8 in Calm     85% 0 in 0 W/m2
20:17 35.1 °F 30.9 °F 30.8 in Calm     85% 0 in 0 W/m2
20:22 34.9 °F 30.6 °F 30.8 in Calm   2 mph 84% 0 in 0 W/m2
20:27 34.9 °F 30.9 °F 30.8 in Calm     85% 0 in 0 W/m2
20:32 34.5 °F 30.6 °F 30.8 in Calm     85% 0 in 0 W/m2
20:37 34.5 °F 30.6 °F 30.8 in North 2 mph 2 mph 85% 0 in 0 W/m2
20:42 34.5 °F 30.6 °F 30.8 in Calm     85% 0 in 0 W/m2
20:47 34.5 °F 30.6 °F 30.8 in Calm     85% 0 in 0 W/m2
20:52 34.5 °F 30.6 °F 30.8 in Calm   4 mph 85% 0 in 0 W/m2
20:57 34.5 °F 30.6 °F 30.8 in Calm   3 mph 85% 0 in 0 W/m2
21:02 34.3 °F 30.4 °F 30.8 in Calm     85% 0 in 0 W/m2
21:07 34.3 °F 30.6 °F 30.8 in Calm   3 mph 86% 0 in 0 W/m2
21:12 34.2 °F 30.4 °F 30.8 in Calm   2 mph 86% 0 in 0 W/m2
21:17 34.2 °F 30.4 °F 30.8 in Calm     86% 0 in 0 W/m2
21:22 34 °F 30.2 °F 30.8 in Calm     86% 0 in 0 W/m2
21:27 34 °F 30.6 °F 30.8 in Calm   1 mph 87% 0 in 0 W/m2
21:32 34 °F 30.6 °F 30.8 in Calm     87% 0 in 0 W/m2
21:37 33.8 °F 30 °F 30.8 in Calm     86% 0 in 0 W/m2
21:42 33.6 °F 29.8 °F 30.8 in Calm     86% 0 in 0 W/m2
21:47 33.4 °F 30 °F 30.8 in Calm     87% 0 in 0 W/m2
21:52 33.3 °F 29.8 °F 30.8 in Calm     87% 0 in 0 W/m2
21:57 33.1 °F 29.7 °F 30.8 in Calm     87% 0 in 0 W/m2
22:02 33.3 °F 30 °F 30.8 in Calm   1 mph 88% 0 in 0 W/m2
22:07 33.4 °F 30.2 °F 30.8 in Calm     88% 0 in 0 W/m2
22:12 33.4 °F 30.2 °F 30.8 in Calm     88% 0 in 0 W/m2
22:17 33.6 °F 30.4 °F 30.8 in Calm     88% 0 in 0 W/m2
22:23 33.6 °F 30.4 °F 30.8 in Calm     88% 0 in 0 W/m2
22:28 33.6 °F 30.4 °F 30.8 in Calm     88% 0 in 0 W/m2
22:33 33.6 °F 30.2 °F 30.8 in Calm     87% 0 in 0 W/m2
22:38 33.4 °F 30 °F 30.8 in Calm     87% 0 in 0 W/m2
22:43 33.3 °F 30 °F 30.8 in Calm     88% 0 in 0 W/m2
22:48 33.4 °F 30.2 °F 30.8 in Calm     88% 0 in 0 W/m2
22:53 33.4 °F 30.2 °F 30.8 in Calm   2 mph 88% 0 in 0 W/m2
22:58 33.4 °F 30.2 °F 30.8 in Calm     88% 0 in 0 W/m2
23:03 33.4 °F 30 °F 30.8 in Calm   1 mph 87% 0 in 0 W/m2
23:08 33.4 °F 30.2 °F 30.8 in Calm     88% 0 in 0 W/m2
23:13 33.4 °F 30.2 °F 30.8 in Calm   1 mph 88% 0 in 0 W/m2
23:18 33.4 °F 30.2 °F 30.8 in Calm     88% 0 in 0 W/m2
23:23 33.6 °F 30.4 °F 30.8 in Calm   1 mph 88% 0 in 0 W/m2
23:28 33.6 °F 30.2 °F 30.8 in Calm     87% 0 in 0 W/m2
23:33 33.6 °F 30.2 °F 30.8 in Calm   4 mph 87% 0 in 0 W/m2
23:38 33.8 °F 30.4 °F 30.8 in Calm     87% 0 in 0 W/m2
23:43 34 °F 30.6 °F 30.8 in Calm   4 mph 87% 0 in 0 W/m2
23:48 34 °F 30.6 °F 30.8 in Calm     87% 0 in 0 W/m2
23:53 33.4 °F 30 °F 30.8 in Calm   3 mph 87% 0 in 0 W/m2
23:58 33.4 °F 30 °F 30.8 in Calm     87% 0 in 0 W/m2
Juneau County Weather
Compliments of Weather Underground - 4 mb